Airport Name : Los Alamitos AAF

Other Name : Los Alamitos AAF

ICAO : KSLI

IATA :

FAA : SLI

Latitude : 33.790017

Longitude : -118.052008

Country : United States

Local Date and Time : 24 Jun 2024 23:00

 

TAF (Terminal Aerodrome Forecast)

TAF KSLI 250500Z 2505/2611 VRB06KT 9999 FEW200 QNH2988INS TX36/2519Z TN19/2512Z

 

METAR (METeorological Aerodrome Report)

KSLI 250555Z AUTO 00000KT 8SM CLR 20/16 A2989 RMK AO2 SLP125 T02040162 10309 20204 52016

KSLI 250455Z AUTO 00000KT 8SM CLR 22/16 A2988 RMK AO2 SLP121 T02150162

KSLI 250355Z AUTO 00000KT 7SM CLR 22/15 A2985 RMK AO2 SLP111 T02210154

KSLI 250255Z AUTO 22004KT 8SM CLR 25/12 A2984 RMK AO2 SLP108 T02480124 53008